Time;durP1;ratioP1;P1;durP2;ratioP2;P2;SDS_P1;SDS_P2;PMS_P1;PMS_P2;Temp;Humidity;BMP_temperature;BMP_pressure;BME280_temperature;BME280_humidity;BME280_pressure;Samples;Min_cycle;Max_cycle;Signal;HPM_P1;HPM_P2
2021/07/20 00:00:00;;;;;;;6.33;4.70;;;19.70;99.90;;;;;;4995077;28;20182;-64
2021/07/20 00:02:33;;;;;;;5.73;5.13;;;19.70;99.90;;;;;;4994423;28;20173;-64
2021/07/20 00:04:59;;;;;;;5.63;5.00;;;19.70;99.90;;;;;;4994720;28;20193;-64
2021/07/20 00:07:24;;;;;;;5.80;5.30;;;19.70;99.90;;;;;;4994734;28;20221;-64
2021/07/20 00:09:50;;;;;;;5.80;5.20;;;19.60;99.90;;;;;;4994647;28;20235;-64
2021/07/20 00:12:16;;;;;;;5.47;4.97;;;19.70;99.90;;;;;;4994365;28;20231;-63
2021/07/20 00:14:41;;;;;;;5.80;5.20;;;19.60;99.90;;;;;;4994537;28;20180;-63
2021/07/20 00:17:07;;;;;;;7.50;5.23;;;19.60;99.90;;;;;;4995009;28;20260;-64
2021/07/20 00:19:32;;;;;;;5.97;5.43;;;19.60;99.90;;;;;;4994273;28;20177;-64
2021/07/20 00:21:58;;;;;;;7.03;5.63;;;19.60;99.90;;;;;;4994364;28;20173;-64
2021/07/20 00:24:23;;;;;;;8.63;6.70;;;19.60;99.90;;;;;;4994615;28;20207;-65
2021/07/20 00:26:49;;;;;;;9.70;6.63;;;19.60;99.90;;;;;;4994740;28;20205;-65
2021/07/20 00:29:14;;;;;;;9.20;7.50;;;19.70;99.90;;;;;;4994839;28;20204;-65
2021/07/20 00:31:40;;;;;;;9.80;7.70;;;19.70;99.90;;;;;;4994577;28;20169;-65
2021/07/20 00:34:06;;;;;;;9.57;7.90;;;19.70;99.90;;;;;;4994692;28;20579;-64
2021/07/20 00:36:33;;;;;;;8.00;7.20;;;19.70;99.90;;;;;;4994394;28;20176;-65
2021/07/20 00:38:58;;;;;;;7.73;7.03;;;19.70;99.90;;;;;;4994504;28;20198;-65
2021/07/20 00:41:24;;;;;;;10.73;8.20;;;19.70;99.90;;;;;;4994265;28;20208;-65
2021/07/20 00:43:49;;;;;;;9.00;8.10;;;19.70;99.90;;;;;;4993965;28;20237;-65
2021/07/20 00:46:15;;;;;;;8.80;7.90;;;19.80;99.90;;;;;;4994373;28;20173;-65
2021/07/20 00:48:41;;;;;;;11.20;7.93;;;19.70;99.90;;;;;;4994400;28;20174;-64
2021/07/20 00:51:07;;;;;;;9.63;8.63;;;19.80;99.90;;;;;;4997589;28;20173;-64
2021/07/20 00:53:32;;;;;;;11.00;8.37;;;19.70;99.90;;;;;;4998099;28;20223;-63
2021/07/20 00:55:58;;;;;;;9.97;8.07;;;19.60;99.90;;;;;;4998234;28;20192;-64
2021/07/20 00:58:24;;;;;;;9.43;8.23;;;19.60;99.90;;;;;;4998326;28;20625;-62
2021/07/20 01:00:52;;;;;;;12.80;7.97;;;19.50;99.90;;;;;;4998356;28;20177;-65
2021/07/20 01:03:18;;;;;;;10.70;7.70;;;19.50;99.90;;;;;;4997552;28;20201;-63
2021/07/20 01:05:44;;;;;;;12.23;8.00;;;19.50;99.90;;;;;;4997685;28;20611;-63
2021/07/20 01:08:10;;;;;;;9.17;7.43;;;19.40;99.90;;;;;;4997680;28;20204;-64
2021/07/20 01:10:39;;;;;;;9.37;7.57;;;19.20;99.90;;;;;;4997752;28;20181;-63
2021/07/20 01:13:06;;;;;;;8.47;7.57;;;19.20;99.90;;;;;;4997408;28;20208;-64
2021/07/20 01:15:32;;;;;;;10.03;6.80;;;19.10;99.90;;;;;;4997858;28;20615;-64
2021/07/20 01:18:00;;;;;;;7.93;6.63;;;19.10;99.90;;;;;;4997453;28;20557;-64
2021/07/20 01:20:28;;;;;;;7.73;6.87;;;19.20;99.90;;;;;;4997335;28;20216;-65
2021/07/20 01:23:39;;;;;;;9.13;7.03;;;19.20;99.90;;;;;;4997468;28;20251;-62
2021/07/20 01:26:05;;;;;;;11.40;7.30;;;19.10;99.90;;;;;;4987239;28;20204;-64
2021/07/20 01:28:31;;;;;;;8.80;6.80;;;19.00;99.90;;;;;;4997359;28;20269;-64
2021/07/20 01:31:02;;;;;;;11.60;7.60;;;19.00;99.90;;;;;;4997096;28;20249;-64
2021/07/20 01:33:31;;;;;;;10.73;6.73;;;19.00;99.90;;;;;;4997414;28;20597;-63
2021/07/20 01:35:59;;;;;;;9.10;6.40;;;18.90;99.90;;;;;;4997609;28;20551;-64
2021/07/20 01:38:27;;;;;;;8.67;7.00;;;18.80;99.90;;;;;;4997627;28;20169;-63
2021/07/20 01:40:58;;;;;;;10.63;7.73;;;19.00;99.90;;;;;;4997042;28;20259;-64
2021/07/20 01:43:25;;;;;;;9.70;7.27;;;18.90;99.90;;;;;;4996934;28;20276;-63
2021/07/20 01:45:54;;;;;;;9.83;7.13;;;18.90;99.90;;;;;;4997326;28;20295;-64
2021/07/20 01:48:23;;;;;;;9.70;7.27;;;18.90;99.90;;;;;;4997410;28;20174;-62
2021/07/20 01:50:50;;;;;;;10.13;7.03;;;18.80;99.90;;;;;;4997428;28;20172;-63
2021/07/20 01:53:16;;;;;;;11.20;7.53;;;18.70;99.90;;;;;;4996681;28;20197;-64
2021/07/20 01:55:41;;;;;;;10.17;7.93;;;18.50;99.90;;;;;;4997078;28;20180;-64
2021/07/20 01:58:07;;;;;;;9.50;7.13;;;18.50;99.90;;;;;;4997140;28;20173;-63
2021/07/20 02:00:33;;;;;;;11.83;7.43;;;18.50;99.90;;;;;;4996816;28;20561;-64
2021/07/20 02:08:27;;;;;;;9.07;6.93;;;18.50;99.90;;;;;;4996493;28;20250;-64
2021/07/20 02:11:01;;;;;;;8.60;7.03;;;18.60;99.90;;;;;;4996933;28;20220;-64
2021/07/20 02:13:29;;;;;;;9.33;6.53;;;18.60;99.90;;;;;;4996254;28;20246;-64
2021/07/20 02:15:55;;;;;;;9.47;7.27;;;18.70;99.90;;;;;;4996916;28;20188;-63
2021/07/20 02:18:25;;;;;;;8.87;6.70;;;18.60;99.90;;;;;;4996291;28;20180;-64
2021/07/20 02:20:52;;;;;;;9.53;6.77;;;18.60;99.90;;;;;;4996380;28;20199;-64
2021/07/20 02:23:19;;;;;;;8.17;6.57;;;18.50;99.90;;;;;;4996379;28;20210;-64
2021/07/20 02:25:46;;;;;;;8.10;6.30;;;18.50;99.90;;;;;;4996575;28;20204;-62
2021/07/20 02:28:13;;;;;;;11.20;6.43;;;18.50;99.90;;;;;;4996807;28;20654;-64
2021/07/20 02:30:39;;;;;;;9.90;6.90;;;18.50;99.90;;;;;;4995975;28;20633;-64
2021/07/20 02:33:05;;;;;;;9.53;6.40;;;18.60;99.90;;;;;;4994723;28;20200;-64
2021/07/20 02:35:32;;;;;;;11.47;8.43;;;18.50;99.90;;;;;;4996242;28;20180;-64
2021/07/20 02:37:59;;;;;;;10.53;8.37;;;18.40;99.90;;;;;;4996183;28;20219;-64
2021/07/20 02:40:26;;;;;;;10.27;8.30;;;18.40;99.90;;;;;;4996349;28;20681;-64
2021/07/20 02:42:55;;;;;;;9.80;7.83;;;18.50;99.90;;;;;;4995475;28;20657;-63
2021/07/20 02:45:20;;;;;;;11.17;7.87;;;18.50;99.90;;;;;;4995968;28;20207;-64
2021/07/20 02:47:49;;;;;;;11.10;7.90;;;18.50;99.90;;;;;;4996108;28;20521;-64
2021/07/20 02:50:16;;;;;;;9.33;7.60;;;19.40;99.90;;;;;;4995676;28;20180;-63
2021/07/20 02:52:45;;;;;;;9.13;7.37;;;18.40;99.90;;;;;;4995566;28;20233;-62
2021/07/20 02:55:12;;;;;;;10.87;6.70;;;18.40;99.90;;;;;;4995853;28;20638;-61
2021/07/20 02:57:40;;;;;;;9.27;7.47;;;18.40;99.90;;;;;;4995977;28;20271;-64
2021/07/20 03:00:08;;;;;;;10.73;7.60;;;18.50;99.90;;;;;;4995631;28;20578;-64
2021/07/20 03:02:36;;;;;;;10.40;7.70;;;18.50;99.90;;;;;;4995602;28;20270;-64
2021/07/20 03:05:06;;;;;;;9.83;8.10;;;18.60;99.90;;;;;;4995769;28;20695;-64
2021/07/20 03:07:33;;;;;;;9.87;8.27;;;18.60;99.90;;;;;;4995366;28;20208;-63
2021/07/20 03:10:00;;;;;;;11.83;8.63;;;18.60;99.90;;;;;;4995796;28;20197;-64
2021/07/20 03:12:29;;;;;;;10.93;8.27;;;18.50;99.90;;;;;;4994711;28;20240;-63
2021/07/20 03:14:56;;;;;;;11.27;7.50;;;18.50;99.90;;;;;;4995420;28;20242;-64
2021/07/20 03:17:25;;;;;;;9.87;7.53;;;18.50;99.90;;;;;;4995514;28;20202;-63
2021/07/20 03:19:52;;;;;;;9.47;7.10;;;18.60;99.90;;;;;;4995283;28;20190;-61
2021/07/20 03:22:21;;;;;;;8.73;6.80;;;18.60;99.90;;;;;;4995070;28;20221;-63
2021/07/20 03:24:47;;;;;;;8.73;6.53;;;18.50;99.90;;;;;;4995272;28;20218;-64
2021/07/20 03:27:13;;;;;;;9.63;7.17;;;18.50;99.90;;;;;;4995191;28;20175;-64
2021/07/20 03:29:42;;;;;;;10.27;6.93;;;18.50;99.90;;;;;;4995406;28;20183;-63
2021/07/20 03:32:19;;;;;;;8.87;6.27;;;18.50;99.90;;;;;;4994843;28;20254;-64
2021/07/20 03:34:46;;;;;;;10.90;7.07;;;18.50;99.90;;;;;;4995161;28;20224;-64
2021/07/20 03:37:12;;;;;;;10.40;7.40;;;18.40;99.90;;;;;;4994999;28;20183;-64
2021/07/20 03:39:40;;;;;;;8.33;6.63;;;18.40;99.90;;;;;;4995070;28;20170;-64
2021/07/20 03:42:08;;;;;;;11.90;7.57;;;18.40;99.90;;;;;;4994680;28;20579;-63
2021/07/20 03:44:34;;;;;;;12.47;9.10;;;18.40;99.90;;;;;;4993887;28;20263;-64
2021/07/20 03:47:00;;;;;;;14.23;9.73;;;18.40;99.90;;;;;;4994877;28;20174;-62
2021/07/20 03:49:27;;;;;;;12.07;9.73;;;18.30;99.90;;;;;;4994639;28;20175;-63
2021/07/20 03:51:58;;;;;;;12.40;8.87;;;18.30;99.90;;;;;;4994469;28;20187;-63
2021/07/20 03:54:25;;;;;;;9.70;8.60;;;18.20;99.90;;;;;;4994858;28;20209;-64
2021/07/20 03:56:52;;;;;;;9.80;8.20;;;18.20;99.90;;;;;;4994585;28;20187;-62
2021/07/20 03:59:20;;;;;;;9.40;8.40;;;18.20;99.90;;;;;;4995005;28;20185;-63
2021/07/20 04:01:48;;;;;;;10.07;8.73;;;18.20;99.90;;;;;;4994706;28;20215;-64
2021/07/20 04:04:17;;;;;;;8.97;8.03;;;18.20;99.90;;;;;;4994364;28;20206;-62
2021/07/20 04:06:42;;;;;;;9.47;7.90;;;18.20;99.90;;;;;;4994611;28;20186;-62
2021/07/20 04:09:11;;;;;;;9.27;8.37;;;18.30;99.90;;;;;;4994613;28;20539;-64
2021/07/20 04:11:37;;;;;;;10.17;8.87;;;18.30;99.90;;;;;;4994442;28;20173;-64
2021/07/20 04:14:04;;;;;;;9.83;8.20;;;18.30;99.90;;;;;;4994808;28;20198;-64
2021/07/20 04:16:31;;;;;;;9.87;8.83;;;18.40;99.90;;;;;;4995084;28;20181;-64
2021/07/20 04:18:57;;;;;;;10.37;8.83;;;18.40;99.90;;;;;;4994336;28;20566;-64
2021/07/20 04:21:23;;;;;;;12.67;8.63;;;18.40;99.90;;;;;;4994321;28;20181;-64
2021/07/20 04:23:50;;;;;;;10.30;8.63;;;18.50;99.90;;;;;;4996063;28;20195;-64
2021/07/20 04:26:17;;;;;;;11.00;8.53;;;18.40;99.90;;;;;;4998846;28;20202;-62
2021/07/20 04:28:43;;;;;;;12.97;8.93;;;18.10;99.90;;;;;;4998863;28;20177;-64
2021/07/20 04:31:09;;;;;;;12.93;8.33;;;17.90;99.90;;;;;;4998473;28;20594;-63
2021/07/20 04:33:36;;;;;;;11.87;8.63;;;17.80;99.90;;;;;;4998197;28;20192;-63
2021/07/20 04:36:03;;;;;;;11.53;8.83;;;17.70;99.90;;;;;;4998379;28;20177;-64
2021/07/20 04:38:32;;;;;;;9.83;8.83;;;17.70;99.90;;;;;;4997976;28;20239;-62
2021/07/20 04:40:59;;;;;;;10.30;8.77;;;17.90;99.90;;;;;;4998474;28;20170;-64
2021/07/20 04:43:25;;;;;;;9.37;8.27;;;18.10;99.90;;;;;;4998350;28;20197;-63
2021/07/20 04:45:54;;;;;;;12.50;8.50;;;18.30;99.90;;;;;;4997886;28;20296;-62
2021/07/20 04:48:20;;;;;;;9.80;8.57;;;18.40;99.90;;;;;;4998286;28;20177;-62
2021/07/20 04:50:46;;;;;;;11.00;8.47;;;18.50;99.90;;;;;;4996925;28;20194;-64
2021/07/20 04:53:13;;;;;;;11.57;9.20;;;18.60;99.90;;;;;;5007507;28;20181;-63
2021/07/20 04:55:40;;;;;;;12.90;9.33;;;18.50;99.90;;;;;;5002582;28;20181;-63
2021/07/20 04:58:06;;;;;;;10.60;8.23;;;18.50;99.90;;;;;;4999870;28;20321;-63
2021/07/20 05:00:34;;;;;;;9.20;7.67;;;18.50;99.90;;;;;;5008934;28;20262;-62
2021/07/20 05:03:02;;;;;;;10.60;8.27;;;18.50;99.90;;;;;;4997201;28;20851;-63
2021/07/20 05:05:31;;;;;;;10.97;8.37;;;18.60;99.90;;;;;;5004723;28;20600;-62
2021/07/20 05:07:57;;;;;;;10.07;9.07;;;18.60;99.90;;;;;;5005976;28;20537;-63
2021/07/20 05:10:24;;;;;;;9.50;8.60;;;18.60;99.90;;;;;;5005896;28;20184;-63
2021/07/20 05:12:50;;;;;;;11.23;9.40;;;18.60;99.90;;;;;;4999237;28;20276;-63
2021/07/20 05:15:18;;;;;;;10.10;9.00;;;18.60;99.90;;;;;;4997197;28;20260;-62
2021/07/20 05:17:44;;;;;;;15.40;10.13;;;18.60;99.90;;;;;;4997224;28;20210;-63
2021/07/20 05:20:17;;;;;;;9.60;8.27;;;18.50;99.90;;;;;;4997160;28;20533;-63
2021/07/20 05:22:43;;;;;;;11.03;8.50;;;18.50;99.90;;;;;;4996942;28;20281;-63
2021/07/20 05:25:10;;;;;;;9.57;8.07;;;18.50;99.90;;;;;;4997023;28;20212;-63
2021/07/20 05:27:38;;;;;;;10.07;8.60;;;18.50;99.90;;;;;;4996929;28;20287;-61
2021/07/20 05:30:08;;;;;;;11.50;9.23;;;18.60;99.90;;;;;;4996910;28;20220;-63
2021/07/20 05:32:36;;;;;;;9.80;8.57;;;18.50;99.90;;;;;;4996609;28;20676;-63
2021/07/20 05:35:04;;;;;;;13.93;9.37;;;18.50;99.90;;;;;;4996213;28;20542;-64
2021/07/20 05:37:34;;;;;;;9.67;8.63;;;18.60;99.90;;;;;;4988424;28;20190;-63
2021/07/20 05:40:05;;;;;;;12.10;8.33;;;18.70;99.90;;;;;;4982266;28;20174;-64
2021/07/20 05:42:32;;;;;;;10.07;9.07;;;18.80;99.90;;;;;;4990925;28;20207;-64
2021/07/20 05:44:58;;;;;;;9.90;8.70;;;18.80;99.90;;;;;;4997383;28;20205;-63
2021/07/20 05:47:25;;;;;;;11.13;9.93;;;18.80;99.90;;;;;;4996892;28;20179;-63
2021/07/20 05:49:51;;;;;;;10.50;8.40;;;18.80;99.90;;;;;;4997255;28;20255;-63
2021/07/20 05:52:17;;;;;;;10.20;8.70;;;18.80;99.90;;;;;;4991685;28;20669;-64
2021/07/20 05:54:46;;;;;;;10.83;8.70;;;18.70;99.90;;;;;;5013639;28;20179;-63
2021/07/20 05:57:13;;;;;;;10.53;8.17;;;18.70;99.90;;;;;;5012315;28;20642;-64
2021/07/20 05:59:40;;;;;;;11.77;10.00;;;18.60;99.90;;;;;;4990929;28;20533;-63
2021/07/20 06:02:10;;;;;;;11.10;8.97;;;18.50;99.90;;;;;;4985053;28;20257;-63
2021/07/20 06:04:37;;;;;;;10.07;8.97;;;18.50;99.90;;;;;;4998222;28;20209;-64
2021/07/20 06:07:05;;;;;;;14.60;9.30;;;18.70;99.90;;;;;;5009316;28;20183;-64
2021/07/20 06:09:32;;;;;;;11.90;9.13;;;18.70;99.90;;;;;;5015793;28;20591;-63
2021/07/20 06:11:58;;;;;;;13.83;9.63;;;18.70;99.90;;;;;;4996395;28;20545;-63
2021/07/20 06:14:24;;;;;;;9.53;8.50;;;18.70;99.90;;;;;;4996678;28;20196;-64
2021/07/20 06:16:50;;;;;;;10.10;8.50;;;18.80;99.90;;;;;;4996750;28;20177;-63
2021/07/20 06:19:16;;;;;;;11.13;9.30;;;18.90;99.90;;;;;;4996458;28;20185;-63
2021/07/20 06:21:43;;;;;;;13.20;9.20;;;18.90;99.90;;;;;;4989624;28;20193;-63
2021/07/20 06:24:11;;;;;;;10.80;9.67;;;18.80;99.90;;;;;;4990257;28;20287;-63
2021/07/20 06:26:38;;;;;;;13.73;9.47;;;18.90;99.90;;;;;;5014098;28;20700;-63
2021/07/20 06:29:06;;;;;;;11.60;10.30;;;18.90;99.90;;;;;;5010878;28;20201;-63
2021/07/20 06:31:32;;;;;;;11.73;9.80;;;18.80;99.90;;;;;;4998368;28;20196;-64
2021/07/20 06:33:59;;;;;;;11.37;9.27;;;18.80;99.90;;;;;;5002766;28;20280;-63
2021/07/20 06:36:25;;;;;;;10.13;8.67;;;18.70;99.90;;;;;;4988067;28;20537;-63
2021/07/20 06:38:52;;;;;;;10.33;8.77;;;18.70;99.90;;;;;;4993633;28;20595;-63
2021/07/20 06:41:18;;;;;;;9.13;8.23;;;19.00;99.90;;;;;;4987691;28;20185;-63
2021/07/20 06:43:45;;;;;;;13.13;8.70;;;19.10;99.90;;;;;;4976625;28;20230;-63
2021/07/20 06:46:13;;;;;;;11.13;8.33;;;19.00;99.90;;;;;;4976350;28;20209;-63
2021/07/20 06:48:43;;;;;;;9.73;8.20;;;19.00;99.90;;;;;;4976268;28;20206;-64
2021/07/20 06:51:08;;;;;;;10.77;9.20;;;19.10;99.90;;;;;;4976445;28;20633;-63
2021/07/20 06:53:34;;;;;;;13.07;9.03;;;19.00;99.90;;;;;;4976232;28;20681;-62
2021/07/20 06:56:02;;;;;;;12.77;10.13;;;19.00;99.90;;;;;;4976369;28;20217;-60
2021/07/20 06:58:31;;;;;;;11.97;9.57;;;18.70;99.90;;;;;;4976528;28;20174;-64
2021/07/20 07:00:59;;;;;;;12.67;9.23;;;18.70;99.90;;;;;;4976709;28;20178;-64
2021/07/20 07:03:35;;;;;;;11.47;9.47;;;18.80;99.90;;;;;;4975798;28;20205;-64
2021/07/20 07:06:02;;;;;;;9.63;8.63;;;18.80;99.90;;;;;;4976330;28;20284;-64
2021/07/20 07:08:28;;;;;;;11.83;9.20;;;19.00;99.90;;;;;;4975919;28;20185;-64
2021/07/20 07:10:56;;;;;;;10.77;8.50;;;19.30;99.90;;;;;;4976508;28;20166;-64
2021/07/20 07:13:24;;;;;;;9.87;8.87;;;19.30;99.90;;;;;;4976019;28;20336;-62
2021/07/20 07:15:51;;;;;;;12.30;8.90;;;19.10;99.90;;;;;;4976519;28;20642;-62
2021/07/20 07:18:17;;;;;;;9.33;8.40;;;19.20;99.90;;;;;;4975906;28;20181;-64
2021/07/20 07:20:43;;;;;;;9.40;8.17;;;19.30;99.90;;;;;;4975921;28;20261;-64
2021/07/20 07:23:13;;;;;;;10.17;8.43;;;19.50;99.90;;;;;;4975770;28;20270;-64
2021/07/20 07:25:39;;;;;;;10.90;8.30;;;19.70;99.90;;;;;;4976122;28;20209;-63
2021/07/20 07:28:05;;;;;;;10.50;7.77;;;19.70;99.90;;;;;;4975958;28;20170;-63
2021/07/20 07:30:32;;;;;;;11.10;7.60;;;19.70;99.90;;;;;;4975488;28;20171;-64
2021/07/20 07:32:59;;;;;;;11.00;7.03;;;19.80;99.90;;;;;;4974215;28;20205;-62
2021/07/20 07:35:30;;;;;;;10.57;7.73;;;19.90;99.90;;;;;;4975702;28;20188;-62
2021/07/20 07:37:59;;;;;;;8.30;7.17;;;19.90;99.90;;;;;;4975940;28;20234;-63
2021/07/20 07:40:26;;;;;;;9.70;7.13;;;19.90;99.90;;;;;;4976071;28;20174;-64
2021/07/20 07:42:53;;;;;;;8.20;7.23;;;19.90;99.90;;;;;;4975144;28;20202;-64
2021/07/20 07:45:19;;;;;;;8.37;7.20;;;20.00;99.90;;;;;;4975422;28;20635;-63
2021/07/20 07:47:45;;;;;;;9.37;7.23;;;20.00;99.90;;;;;;4975573;28;20225;-64
2021/07/20 07:50:12;;;;;;;8.70;6.70;;;20.10;99.90;;;;;;4975902;28;20177;-64
2021/07/20 07:52:39;;;;;;;8.40;7.07;;;20.20;99.90;;;;;;4975193;28;20186;-64
2021/07/20 07:55:05;;;;;;;8.43;7.03;;;20.20;99.90;;;;;;4975726;28;20209;-64
2021/07/20 07:57:31;;;;;;;9.63;7.20;;;20.20;99.90;;;;;;4975879;28;20170;-63
2021/07/20 07:59:59;;;;;;;10.17;7.80;;;20.40;99.90;;;;;;4975186;28;20224;-63
2021/07/20 08:02:30;;;;;;;9.20;7.80;;;20.20;99.90;;;;;;4975238;28;20268;-62
2021/07/20 08:04:57;;;;;;;9.27;7.37;;;20.40;99.90;;;;;;4975569;28;20225;-64
2021/07/20 08:07:23;;;;;;;8.33;7.43;;;20.30;99.90;;;;;;4975538;28;20781;-64
2021/07/20 08:09:51;;;;;;;8.20;7.17;;;20.40;99.90;;;;;;4975499;28;20282;-63
2021/07/20 08:12:18;;;;;;;9.23;7.40;;;20.40;99.90;;;;;;4974765;28;20633;-63
2021/07/20 08:14:44;;;;;;;9.97;7.20;;;20.20;99.90;;;;;;4974851;28;20220;-64
2021/07/20 08:17:10;;;;;;;10.03;7.50;;;20.30;99.90;;;;;;4975050;28;20257;-64
2021/07/20 08:19:40;;;;;;;10.03;7.40;;;20.30;99.90;;;;;;4975017;28;20194;-62
2021/07/20 08:22:14;;;;;;;10.70;7.30;;;20.50;99.90;;;;;;4975161;28;20184;-63
2021/07/20 08:24:55;;;;;;;7.97;7.10;;;20.20;99.90;;;;;;4975441;28;20716;-62
2021/07/20 08:27:29;;;;;;;10.40;7.10;;;20.60;99.90;;;;;;4975104;28;20649;-64
2021/07/20 08:29:57;;;;;;;8.43;7.40;;;20.50;99.90;;;;;;4975263;28;20177;-64
2021/07/20 08:32:27;;;;;;;10.07;7.63;;;20.50;99.90;;;;;;4974812;28;20182;-63
2021/07/20 08:35:05;;;;;;;8.07;6.70;;;20.50;99.90;;;;;;4975637;28;20178;-64
2021/07/20 08:37:33;;;;;;;7.87;7.07;;;20.50;99.90;;;;;;4974936;28;20261;-64
2021/07/20 08:40:15;;;;;;;10.00;6.90;;;20.50;99.90;;;;;;4974945;28;20271;-64
2021/07/20 08:43:00;;;;;;;9.87;7.53;;;20.70;99.90;;;;;;4974960;28;20516;-64
2021/07/20 08:45:34;;;;;;;11.07;7.50;;;20.70;99.90;;;;;;4975006;28;20194;-64
2021/07/20 08:48:24;;;;;;;9.37;6.53;;;20.60;99.90;;;;;;4974939;28;20205;-64
2021/07/20 08:51:01;;;;;;;9.30;7.50;;;20.60;99.90;;;;;;4975083;28;20166;-65
2021/07/20 08:53:50;;;;;;;7.93;6.70;;;20.80;99.90;;;;;;4974459;28;20217;-64
2021/07/20 08:56:22;;;;;;;7.60;6.77;;;20.70;99.90;;;;;;4974904;28;20189;-63
2021/07/20 08:58:51;;;;;;;8.20;7.07;;;20.50;99.90;;;;;;4974760;28;20182;-63
2021/07/20 09:01:33;;;;;;;7.73;6.87;;;20.30;99.90;;;;;;4974931;28;20170;-62
2021/07/20 09:04:05;;;;;;;11.60;7.27;;;20.50;99.90;;;;;;4974604;28;20189;-64
2021/07/20 09:06:51;;;;;;;8.10;6.87;;;20.70;99.90;;;;;;4973511;28;20658;-63
2021/07/20 09:09:44;;;;;;;10.38;7.03;;;21.00;99.90;;;;;;4975068;28;20198;-64
2021/07/20 09:12:16;;;;;;;8.40;7.18;;;21.20;99.90;;;;;;4972764;28;20186;-63
2021/07/20 09:15:00;;;;;;;8.25;6.40;;;21.30;99.90;;;;;;4978784;28;20176;-64
2021/07/20 09:17:32;;;;;;;9.38;6.20;;;21.60;99.90;;;;;;4978376;28;20175;-63
2021/07/20 09:20:09;;;;;;;10.77;6.43;;;22.00;99.90;;;;;;4978224;28;20168;-64
2021/07/20 09:22:38;;;;;;;9.70;6.68;;;22.20;99.90;;;;;;4977717;28;20192;-64
2021/07/20 09:25:08;;;;;;;11.00;6.97;;;22.20;99.90;;;;;;4978140;28;20197;-64
2021/07/20 09:28:01;;;;;;;8.18;6.60;;;22.00;99.90;;;;;;4977814;28;20236;-63
2021/07/20 09:30:31;;;;;;;7.30;5.85;;;22.10;99.90;;;;;;4978335;28;20312;-63
2021/07/20 09:33:34;;;;;;;8.02;6.70;;;22.30;99.90;;;;;;4978112;28;20197;-63
2021/07/20 09:36:07;;;;;;;7.70;6.90;;;22.50;99.90;;;;;;4977845;28;20178;-64
2021/07/20 09:38:55;;;;;;;7.18;6.47;;;22.40;99.90;;;;;;4977918;28;20225;-64
2021/07/20 09:41:33;;;;;;;7.22;6.53;;;22.60;99.90;;;;;;4977942;28;20174;-64
2021/07/20 09:44:31;;;;;;;9.13;6.72;;;22.70;99.90;;;;;;4977657;28;20248;-64
2021/07/20 09:47:28;;;;;;;8.40;7.32;;;22.40;99.90;;;;;;4974932;28;20645;-64
2021/07/20 09:50:16;;;;;;;8.98;6.70;;;22.60;99.90;;;;;;4978059;28;20182;-64
2021/07/20 09:53:14;;;;;;;7.72;6.93;;;22.80;99.90;;;;;;4977381;28;20672;-64
2021/07/20 09:55:45;;;;;;;10.20;7.20;;;23.10;99.90;;;;;;4977643;28;20182;-64
2021/07/20 09:58:33;;;;;;;8.32;6.72;;;23.40;99.90;;;;;;4977839;28;20178;-64
2021/07/20 10:01:24;;;;;;;7.38;6.60;;;23.40;99.90;;;;;;4976320;28;20336;-64
2021/07/20 10:04:03;;;;;;;8.25;6.15;;;23.50;99.90;;;;;;4977365;28;20194;-64
2021/07/20 10:06:47;;;;;;;9.32;6.70;;;23.70;99.90;;;;;;4977776;28;20185;-63
2021/07/20 10:09:24;;;;;;;7.40;5.70;;;23.70;99.90;;;;;;4977119;28;20200;-64
2021/07/20 10:11:54;;;;;;;6.38;5.75;;;23.50;99.90;;;;;;4977052;28;20174;-64
2021/07/20 10:14:47;;;;;;;8.50;6.50;;;23.40;99.90;;;;;;4977216;28;20205;-63
2021/07/20 10:17:15;;;;;;;10.18;6.40;;;23.50;99.90;;;;;;4977611;28;20178;-64
2021/07/20 10:20:15;;;;;;;8.23;5.57;;;23.40;99.90;;;;;;4976833;28;20197;-64
2021/07/20 10:23:22;;;;;;;8.00;5.95;;;23.50;99.90;;;;;;4976550;28;20202;-63
2021/07/20 10:26:00;;;;;;;8.25;6.40;;;23.70;99.90;;;;;;4971460;28;20610;-64
2021/07/20 10:28:30;;;;;;;8.75;6.25;;;23.60;99.90;;;;;;4977081;28;20170;-64
2021/07/20 10:31:04;;;;;;;8.65;6.22;;;24.10;99.90;;;;;;4977056;28;20181;-65
2021/07/20 10:33:45;;;;;;;9.65;6.45;;;24.60;99.90;;;;;;4976687;28;20220;-64
2021/07/20 10:36:26;;;;;;;7.20;6.30;;;24.80;99.90;;;;;;4976576;28;20174;-64
2021/07/20 10:39:09;;;;;;;8.52;7.63;;;24.60;99.90;;;;;;4976737;28;20211;-64
2021/07/20 10:41:48;;;;;;;8.85;6.30;;;24.60;99.90;;;;;;4976497;28;20204;-63
2021/07/20 10:44:27;;;;;;;8.27;6.38;;;24.80;99.90;;;;;;4976878;28;20201;-63
2021/07/20 10:46:56;;;;;;;7.82;7.03;;;24.70;99.90;;;;;;4975429;28;20185;-64
2021/07/20 10:49:37;;;;;;;7.88;6.60;;;24.30;99.90;;;;;;4976439;28;20196;-64
2021/07/20 10:52:36;;;;;;;9.15;6.90;;;24.20;99.90;;;;;;4976070;28;20178;-64
2021/07/20 10:55:36;;;;;;;8.23;7.18;;;24.30;99.90;;;;;;4976223;28;20260;-64
2021/07/20 10:58:27;;;;;;;7.55;6.65;;;24.50;99.90;;;;;;4969274;28;20233;-64
2021/07/20 11:00:57;;;;;;;9.82;7.07;;;24.60;99.90;;;;;;4976769;28;20186;-64
2021/07/20 11:03:45;;;;;;;7.88;6.32;;;24.60;99.90;;;;;;4976113;28;20198;-65
2021/07/20 11:06:13;;;;;;;8.80;6.90;;;24.60;99.90;;;;;;4976004;28;20228;-63
2021/07/20 11:08:44;;;;;;;9.93;7.20;;;24.60;99.90;;;;;;4976172;28;20190;-63
2021/07/20 11:11:18;;;;;;;7.50;6.80;;;24.50;99.90;;;;;;4976248;28;20170;-65
2021/07/20 11:13:49;;;;;;;8.48;7.60;;;24.40;99.90;;;;;;4975722;28;20205;-64
2021/07/20 11:16:16;;;;;;;10.02;8.30;;;24.50;99.90;;;;;;4976141;28;20233;-64
2021/07/20 11:18:42;;;;;;;9.90;8.32;;;24.80;99.90;;;;;;4975831;28;20171;-64
2021/07/20 11:21:11;;;;;;;9.73;7.78;;;24.90;99.90;;;;;;4976142;28;20183;-63
2021/07/20 11:23:39;;;;;;;9.05;7.63;;;25.00;99.90;;;;;;4976378;28;20209;-64
2021/07/20 11:26:07;;;;;;;9.13;7.38;;;24.90;99.90;;;;;;4975880;28;20213;-63
2021/07/20 11:28:33;;;;;;;7.75;6.68;;;24.50;99.90;;;;;;4975799;28;20213;-64
2021/07/20 11:31:02;;;;;;;10.85;8.02;;;24.20;99.90;;;;;;4975842;28;20174;-63
2021/07/20 11:33:36;;;;;;;8.70;7.40;;;24.30;99.90;;;;;;4975477;28;20229;-65
2021/07/20 11:36:04;;;;;;;8.38;7.25;;;24.40;99.90;;;;;;4976105;28;20177;-63
2021/07/20 11:38:33;;;;;;;8.90;7.97;;;24.70;99.90;;;;;;4976075;28;20186;-65
2021/07/20 11:41:33;;;;;;;9.65;8.65;;;24.80;99.90;;;;;;4975631;28;20278;-64
2021/07/20 11:44:17;;;;;;;10.02;8.55;;;25.00;99.90;;;;;;4975590;28;20189;-63
2021/07/20 11:47:12;;;;;;;9.10;8.20;;;24.70;99.90;;;;;;4975972;28;20686;-64
2021/07/20 11:49:58;;;;;;;11.80;7.95;;;24.70;99.90;;;;;;4972071;28;20182;-64
2021/07/20 11:52:47;;;;;;;9.93;8.73;;;24.60;99.90;;;;;;4975538;28;20178;-64
2021/07/20 11:55:39;;;;;;;10.43;9.32;;;24.70;99.90;;;;;;4969888;28;20321;-64
2021/07/20 11:58:23;;;;;;;9.85;8.85;;;24.70;99.90;;;;;;4975546;28;20170;-63
2021/07/20 12:01:10;;;;;;;11.40;9.02;;;24.50;99.90;;;;;;4975654;28;20171;-64
2021/07/20 12:04:02;;;;;;;10.38;9.35;;;24.70;99.90;;;;;;4975176;28;20260;-65
2021/07/20 12:06:46;;;;;;;10.52;9.52;;;24.90;99.90;;;;;;4969836;28;20193;-65
2021/07/20 12:09:22;;;;;;;10.55;9.52;;;25.00;99.90;;;;;;4975096;28;20269;-64
2021/07/20 12:11:52;;;;;;;10.10;9.10;;;25.10;99.90;;;;;;4975433;28;20253;-64
2021/07/20 12:14:19;;;;;;;10.48;9.40;;;25.20;99.90;;;;;;4975182;28;20186;-64
2021/07/20 12:16:47;;;;;;;11.13;9.90;;;25.20;99.90;;;;;;4975540;28;20201;-63
2021/07/20 12:19:24;;;;;;;10.68;9.57;;;25.10;99.90;;;;;;4975342;28;20308;-64
2021/07/20 12:21:49;;;;;;;11.88;10.68;;;25.30;99.90;;;;;;4975275;28;20170;-65
2021/07/20 12:24:15;;;;;;;12.10;9.57;;;25.30;99.90;;;;;;4975207;28;20202;-64
2021/07/20 12:26:41;;;;;;;14.70;9.30;;;25.20;99.90;;;;;;4975240;28;20232;-65
2021/07/20 12:29:09;;;;;;;10.50;9.50;;;25.20;99.90;;;;;;4975128;28;20501;-65
2021/07/20 12:31:36;;;;;;;10.95;9.93;;;25.30;99.90;;;;;;4974916;28;20182;-65
2021/07/20 12:34:02;;;;;;;10.88;9.80;;;25.80;99.90;;;;;;4974243;28;20686;-64
2021/07/20 12:36:28;;;;;;;10.32;9.23;;;25.90;99.90;;;;;;4975444;28;20561;-65
2021/07/20 12:39:07;;;;;;;10.50;9.32;;;26.00;99.90;;;;;;4975528;28;20619;-64
2021/07/20 12:41:34;;;;;;;10.68;9.65;;;26.30;99.90;;;;;;4974819;28;20177;-64
2021/07/20 12:44:01;;;;;;;10.60;9.50;;;26.80;99.90;;;;;;4975149;28;20259;-64
2021/07/20 12:46:28;;;;;;;10.13;9.13;;;27.00;99.90;;;;;;4977625;28;20194;-65
2021/07/20 12:48:55;;;;;;;10.88;8.98;;;26.80;99.90;;;;;;4978608;28;20197;-65
2021/07/20 12:51:23;;;;;;;9.80;8.80;;;26.60;99.90;;;;;;4978984;28;20166;-64
2021/07/20 12:53:50;;;;;;;10.00;8.88;;;26.10;99.90;;;;;;4978596;28;20186;-64
2021/07/20 12:56:30;;;;;;;9.75;8.75;;;26.10;99.90;;;;;;4978530;28;20229;-64
2021/07/20 12:59:04;;;;;;;10.20;8.88;;;26.40;99.90;;;;;;4978970;28;20177;-64
2021/07/20 13:01:31;;;;;;;9.48;8.48;;;26.60;99.90;;;;;;4978369;28;20170;-65
2021/07/20 13:04:05;;;;;;;10.05;8.98;;;26.60;99.90;;;;;;4978650;28;20217;-64
2021/07/20 13:06:39;;;;;;;9.63;8.60;;;26.30;99.90;;;;;;4978709;28;20182;-64